sensor_id;sensor_type;location;lat;lon;timestamp;pressure;altitude;pressure_sealevel;temperature;humidity
75221;BME280;63802;53.232;6.570;2022-12-13T00:00:14;101380.56;;;-3.68;95.04
75221;BME280;63802;53.232;6.570;2022-12-13T00:02:43;101390.94;;;-3.67;95.21
75221;BME280;63802;53.232;6.570;2022-12-13T00:05:09;101382.72;;;-3.65;94.91
75221;BME280;63802;53.232;6.570;2022-12-13T00:07:35;101376.56;;;-3.66;94.89
75221;BME280;63802;53.232;6.570;2022-12-13T00:10:01;101377.56;;;-3.72;95.12
75221;BME280;63802;53.232;6.570;2022-12-13T00:12:27;101369.81;;;-3.78;95.39
75221;BME280;63802;53.232;6.570;2022-12-13T00:14:52;101380.41;;;-3.83;95.48
75221;BME280;63802;53.232;6.570;2022-12-13T00:17:18;101374.81;;;-3.87;95.31
75221;BME280;63802;53.232;6.570;2022-12-13T00:19:46;101369.66;;;-3.93;95.33
75221;BME280;63802;53.232;6.570;2022-12-13T00:22:12;101381.34;;;-3.99;94.87
75221;BME280;63802;53.232;6.570;2022-12-13T00:24:37;101371.69;;;-4.05;95.10
75221;BME280;63802;53.232;6.570;2022-12-13T00:27:03;101370.88;;;-4.06;94.85
75221;BME280;63802;53.232;6.570;2022-12-13T00:29:29;101363.34;;;-4.14;95.07
75221;BME280;63802;53.232;6.570;2022-12-13T00:31:54;101371.66;;;-4.11;95.07
75221;BME280;63802;53.232;6.570;2022-12-13T00:34:20;101372.63;;;-4.17;95.44
75221;BME280;63802;53.232;6.570;2022-12-13T00:36:45;101372.31;;;-4.25;95.13
75221;BME280;63802;53.232;6.570;2022-12-13T00:39:11;101374.84;;;-4.35;95.02
75221;BME280;63802;53.232;6.570;2022-12-13T00:41:38;101373.69;;;-4.44;95.25
75221;BME280;63802;53.232;6.570;2022-12-13T00:44:04;101361.28;;;-4.55;94.92
75221;BME280;63802;53.232;6.570;2022-12-13T00:46:30;101366.44;;;-4.49;95.06
75221;BME280;63802;53.232;6.570;2022-12-13T00:48:59;101365.44;;;-4.43;95.32
75221;BME280;63802;53.232;6.570;2022-12-13T00:51:26;101365.84;;;-4.29;95.52
75221;BME280;63802;53.232;6.570;2022-12-13T00:53:52;101360.84;;;-4.26;95.01
75221;BME280;63802;53.232;6.570;2022-12-13T00:56:22;101359.97;;;-4.31;95.15
75221;BME280;63802;53.232;6.570;2022-12-13T00:58:49;101365.56;;;-4.33;95.61
75221;BME280;63802;53.232;6.570;2022-12-13T01:01:17;101352.78;;;-4.31;95.38
75221;BME280;63802;53.232;6.570;2022-12-13T01:03:44;101360.94;;;-4.16;95.42
75221;BME280;63802;53.232;6.570;2022-12-13T01:06:18;101357.31;;;-4.04;95.30
75221;BME280;63802;53.232;6.570;2022-12-13T01:08:45;101362.03;;;-4.12;95.31
75221;BME280;63802;53.232;6.570;2022-12-13T01:11:11;101352.41;;;-4.18;95.48
75221;BME280;63802;53.232;6.570;2022-12-13T01:13:37;101357.06;;;-4.30;95.20
75221;BME280;63802;53.232;6.570;2022-12-13T01:16:04;101359.75;;;-4.30;95.00
75221;BME280;63802;53.232;6.570;2022-12-13T01:18:30;101354.31;;;-4.40;95.47
75221;BME280;63802;53.232;6.570;2022-12-13T01:21:01;101351.09;;;-4.42;95.67
75221;BME280;63802;53.232;6.570;2022-12-13T01:23:29;101362.22;;;-4.45;95.58
75221;BME280;63802;53.232;6.570;2022-12-13T01:25:55;101352.63;;;-4.46;95.64
75221;BME280;63802;53.232;6.570;2022-12-13T01:28:22;101346.13;;;-4.55;95.28
75221;BME280;63802;53.232;6.570;2022-12-13T01:30:59;101357.41;;;-4.48;95.63
75221;BME280;63802;53.232;6.570;2022-12-13T01:33:25;101350.91;;;-4.57;95.49
75221;BME280;63802;53.232;6.570;2022-12-13T01:35:51;101348.75;;;-4.60;95.97
75221;BME280;63802;53.232;6.570;2022-12-13T01:38:17;101353.38;;;-4.50;95.86
75221;BME280;63802;53.232;6.570;2022-12-13T01:40:49;101337.47;;;-4.67;95.48
75221;BME280;63802;53.232;6.570;2022-12-13T01:43:22;101357.28;;;-4.58;95.75
75221;BME280;63802;53.232;6.570;2022-12-13T01:45:48;101357.47;;;-4.64;95.55
75221;BME280;63802;53.232;6.570;2022-12-13T01:48:20;101356.31;;;-4.73;95.29
75221;BME280;63802;53.232;6.570;2022-12-13T01:50:52;101359.19;;;-4.75;95.74
75221;BME280;63802;53.232;6.570;2022-12-13T01:53:24;101353.31;;;-4.77;95.38
75221;BME280;63802;53.232;6.570;2022-12-13T01:55:57;101371.88;;;-4.82;95.46
75221;BME280;63802;53.232;6.570;2022-12-13T01:58:26;101364.97;;;-4.83;95.29
75221;BME280;63802;53.232;6.570;2022-12-13T02:00:52;101349.00;;;-4.83;95.59
75221;BME280;63802;53.232;6.570;2022-12-13T02:03:20;101354.13;;;-4.77;95.57
75221;BME280;63802;53.232;6.570;2022-12-13T02:05:59;101357.66;;;-4.71;95.31
75221;BME280;63802;53.232;6.570;2022-12-13T02:08:26;101364.09;;;-4.67;95.51
75221;BME280;63802;53.232;6.570;2022-12-13T02:10:52;101362.97;;;-4.49;95.51
75221;BME280;63802;53.232;6.570;2022-12-13T02:13:18;101361.81;;;-4.32;95.28
75221;BME280;63802;53.232;6.570;2022-12-13T02:16:02;101356.59;;;-4.22;95.80
75221;BME280;63802;53.232;6.570;2022-12-13T02:18:43;101353.78;;;-4.10;95.42
75221;BME280;63802;53.232;6.570;2022-12-13T02:21:22;101349.22;;;-4.15;95.88
75221;BME280;63802;53.232;6.570;2022-12-13T02:32:17;101339.19;;;-4.02;95.65
75221;BME280;63802;53.232;6.570;2022-12-13T02:35:02;101338.16;;;-4.01;95.26
75221;BME280;63802;53.232;6.570;2022-12-13T02:37:50;101341.03;;;-4.08;95.49
75221;BME280;63802;53.232;6.570;2022-12-13T02:40:31;101337.50;;;-4.14;95.29
75221;BME280;63802;53.232;6.570;2022-12-13T02:43:14;101325.13;;;-4.25;95.62
75221;BME280;63802;53.232;6.570;2022-12-13T02:45:48;101321.84;;;-4.37;95.85
75221;BME280;63802;53.232;6.570;2022-12-13T02:48:18;101327.06;;;-4.47;95.73
75221;BME280;63802;53.232;6.570;2022-12-13T02:50:46;101329.66;;;-4.52;95.90
75221;BME280;63802;53.232;6.570;2022-12-13T02:53:14;101329.56;;;-4.62;95.50
75221;BME280;63802;53.232;6.570;2022-12-13T02:55:40;101330.84;;;-4.64;95.49
75221;BME280;63802;53.232;6.570;2022-12-13T02:58:06;101332.63;;;-4.70;95.67
75221;BME280;63802;53.232;6.570;2022-12-13T03:03:31;101322.47;;;-4.78;95.12
75221;BME280;63802;53.232;6.570;2022-12-13T03:11:21;101313.84;;;-4.85;95.17
75221;BME280;63802;53.232;6.570;2022-12-13T03:13:53;101321.31;;;-4.82;95.61
75221;BME280;63802;53.232;6.570;2022-12-13T03:18:51;101319.97;;;-4.85;95.58
75221;BME280;63802;53.232;6.570;2022-12-13T03:21:18;101319.97;;;-4.85;95.45
75221;BME280;63802;53.232;6.570;2022-12-13T03:23:44;101328.63;;;-4.72;95.45
75221;BME280;63802;53.232;6.570;2022-12-13T03:26:13;101323.06;;;-4.71;95.47
75221;BME280;63802;53.232;6.570;2022-12-13T03:28:39;101329.91;;;-4.75;95.39
75221;BME280;63802;53.232;6.570;2022-12-13T03:31:05;101320.28;;;-4.81;95.74
75221;BME280;63802;53.232;6.570;2022-12-13T03:33:31;101321.38;;;-4.77;95.18
75221;BME280;63802;53.232;6.570;2022-12-13T03:35:57;101318.16;;;-4.79;95.80
75221;BME280;63802;53.232;6.570;2022-12-13T03:38:24;101311.34;;;-4.70;95.23
75221;BME280;63802;53.232;6.570;2022-12-13T03:40:56;101312.97;;;-4.69;95.41
75221;BME280;63802;53.232;6.570;2022-12-13T03:43:23;101313.47;;;-4.72;95.93
75221;BME280;63802;53.232;6.570;2022-12-13T03:45:51;101319.91;;;-4.68;95.71
75221;BME280;63802;53.232;6.570;2022-12-13T03:48:18;101301.72;;;-4.76;95.61
75221;BME280;63802;53.232;6.570;2022-12-13T03:50:43;101304.13;;;-4.75;95.93
75221;BME280;63802;53.232;6.570;2022-12-13T03:53:08;101318.78;;;-4.72;96.13
75221;BME280;63802;53.232;6.570;2022-12-13T03:55:34;101316.31;;;-4.79;95.76
75221;BME280;63802;53.232;6.570;2022-12-13T03:57:59;101308.81;;;-4.82;95.55
75221;BME280;63802;53.232;6.570;2022-12-13T04:00:25;101303.63;;;-4.71;95.57
75221;BME280;63802;53.232;6.570;2022-12-13T04:02:50;101307.16;;;-4.66;95.83
75221;BME280;63802;53.232;6.570;2022-12-13T04:05:16;101307.38;;;-4.67;95.75
75221;BME280;63802;53.232;6.570;2022-12-13T04:07:42;101303.75;;;-4.61;95.96
75221;BME280;63802;53.232;6.570;2022-12-13T04:10:07;101288.97;;;-4.74;95.94
75221;BME280;63802;53.232;6.570;2022-12-13T04:12:33;101302.00;;;-4.72;95.70
75221;BME280;63802;53.232;6.570;2022-12-13T04:15:17;101297.50;;;-4.72;96.05
75221;BME280;63802;53.232;6.570;2022-12-13T04:17:42;101294.34;;;-4.69;95.82
75221;BME280;63802;53.232;6.570;2022-12-13T04:20:08;101295.91;;;-4.73;95.51
75221;BME280;63802;53.232;6.570;2022-12-13T04:22:33;101291.06;;;-4.76;95.57
75221;BME280;63802;53.232;6.570;2022-12-13T04:24:59;101292.06;;;-4.82;95.70
75221;BME280;63802;53.232;6.570;2022-12-13T04:27:24;101289.84;;;-4.90;95.28
75221;BME280;63802;53.232;6.570;2022-12-13T04:29:50;101292.03;;;-4.87;95.92
75221;BME280;63802;53.232;6.570;2022-12-13T04:32:15;101282.97;;;-4.86;95.31
75221;BME280;63802;53.232;6.570;2022-12-13T04:34:41;101291.69;;;-4.91;95.56
75221;BME280;63802;53.232;6.570;2022-12-13T04:37:06;101300.09;;;-4.99;95.66
75221;BME280;63802;53.232;6.570;2022-12-13T04:39:32;101288.72;;;-4.94;95.55
75221;BME280;63802;53.232;6.570;2022-12-13T04:41:57;101279.69;;;-4.93;95.92
75221;BME280;63802;53.232;6.570;2022-12-13T04:44:22;101285.00;;;-4.93;95.83
75221;BME280;63802;53.232;6.570;2022-12-13T04:46:48;101282.78;;;-5.01;95.62
75221;BME280;63802;53.232;6.570;2022-12-13T04:49:13;101274.31;;;-4.98;95.77
75221;BME280;63802;53.232;6.570;2022-12-13T04:51:38;101274.72;;;-4.85;95.58
75221;BME280;63802;53.232;6.570;2022-12-13T04:54:04;101266.16;;;-4.65;95.88
75221;BME280;63802;53.232;6.570;2022-12-13T04:56:29;101266.69;;;-4.68;95.38
75221;BME280;63802;53.232;6.570;2022-12-13T04:58:55;101265.56;;;-4.72;95.70
75221;BME280;63802;53.232;6.570;2022-12-13T05:01:20;101265.97;;;-4.85;95.60
75221;BME280;63802;53.232;6.570;2022-12-13T05:03:45;101267.69;;;-4.96;95.59
75221;BME280;63802;53.232;6.570;2022-12-13T05:06:12;101263.13;;;-5.00;95.70
75221;BME280;63802;53.232;6.570;2022-12-13T05:08:38;101269.44;;;-5.06;95.08
75221;BME280;63802;53.232;6.570;2022-12-13T05:11:05;101256.25;;;-5.18;95.23
75221;BME280;63802;53.232;6.570;2022-12-13T05:13:30;101267.69;;;-5.17;95.52
75221;BME280;63802;53.232;6.570;2022-12-13T05:15:57;101258.16;;;-5.13;95.49
75221;BME280;63802;53.232;6.570;2022-12-13T05:18:23;101268.81;;;-5.13;95.77
75221;BME280;63802;53.232;6.570;2022-12-13T05:20:49;101254.16;;;-5.16;95.42
75221;BME280;63802;53.232;6.570;2022-12-13T05:23:16;101262.44;;;-5.12;95.09
75221;BME280;63802;53.232;6.570;2022-12-13T05:25:41;101258.22;;;-5.08;95.34
75221;BME280;63802;53.232;6.570;2022-12-13T05:28:07;101255.06;;;-5.05;95.44
75221;BME280;63802;53.232;6.570;2022-12-13T05:30:32;101244.38;;;-5.10;95.55
75221;BME280;63802;53.232;6.570;2022-12-13T05:32:58;101256.63;;;-5.09;95.26
75221;BME280;63802;53.232;6.570;2022-12-13T05:35:23;101248.66;;;-5.09;95.01
75221;BME280;63802;53.232;6.570;2022-12-13T05:37:49;101260.28;;;-5.15;94.95
75221;BME280;63802;53.232;6.570;2022-12-13T05:40:15;101254.34;;;-5.22;95.35
75221;BME280;63802;53.232;6.570;2022-12-13T05:42:40;101257.38;;;-5.14;95.60
75221;BME280;63802;53.232;6.570;2022-12-13T05:45:07;101242.88;;;-5.23;95.33
75221;BME280;63802;53.232;6.570;2022-12-13T05:47:32;101248.47;;;-5.24;95.30
75221;BME280;63802;53.232;6.570;2022-12-13T05:49:57;101251.59;;;-5.27;95.71
75221;BME280;63802;53.232;6.570;2022-12-13T05:52:23;101254.88;;;-5.20;94.96
75221;BME280;63802;53.232;6.570;2022-12-13T05:54:53;101251.25;;;-5.14;95.25
75221;BME280;63802;53.232;6.570;2022-12-13T05:57:22;101261.97;;;-5.09;95.54
75221;BME280;63802;53.232;6.570;2022-12-13T05:59:48;101243.75;;;-5.17;94.94
75221;BME280;63802;53.232;6.570;2022-12-13T06:02:14;101247.66;;;-5.25;95.68
75221;BME280;63802;53.232;6.570;2022-12-13T06:04:42;101260.13;;;-5.25;95.42
75221;BME280;63802;53.232;6.570;2022-12-13T06:07:07;101262.03;;;-5.26;95.38
75221;BME280;63802;53.232;6.570;2022-12-13T06:09:32;101248.41;;;-5.29;95.57
75221;BME280;63802;53.232;6.570;2022-12-13T06:11:58;101256.44;;;-5.24;95.47
75221;BME280;63802;53.232;6.570;2022-12-13T06:14:23;101256.44;;;-5.03;95.01
75221;BME280;63802;53.232;6.570;2022-12-13T06:16:50;101253.91;;;-4.93;95.59
75221;BME280;63802;53.232;6.570;2022-12-13T06:19:16;101249.75;;;-5.05;95.14
75221;BME280;63802;53.232;6.570;2022-12-13T06:21:41;101254.19;;;-5.11;95.44
75221;BME280;63802;53.232;6.570;2022-12-13T06:24:07;101248.16;;;-5.06;95.29
75221;BME280;63802;53.232;6.570;2022-12-13T06:26:32;101255.81;;;-4.88;95.62
75221;BME280;63802;53.232;6.570;2022-12-13T06:28:58;101253.59;;;-4.69;94.98
75221;BME280;63802;53.232;6.570;2022-12-13T06:31:24;101265.16;;;-4.59;95.17
75221;BME280;63802;53.232;6.570;2022-12-13T06:33:49;101255.88;;;-4.56;95.18
75221;BME280;63802;53.232;6.570;2022-12-13T06:36:15;101256.63;;;-4.61;95.69
75221;BME280;63802;53.232;6.570;2022-12-13T06:38:41;101258.53;;;-4.56;95.24
75221;BME280;63802;53.232;6.570;2022-12-13T06:41:15;101253.75;;;-4.54;94.92
75221;BME280;63802;53.232;6.570;2022-12-13T06:43:42;101258.63;;;-4.46;94.92
75221;BME280;63802;53.232;6.570;2022-12-13T06:46:08;101269.47;;;-4.53;95.48
75221;BME280;63802;53.232;6.570;2022-12-13T06:48:34;101271.31;;;-4.58;95.14
75221;BME280;63802;53.232;6.570;2022-12-13T06:51:03;101255.97;;;-4.73;94.76
75221;BME280;63802;53.232;6.570;2022-12-13T06:53:29;101265.56;;;-4.72;95.13
75221;BME280;63802;53.232;6.570;2022-12-13T06:56:04;101262.88;;;-4.72;95.23
75221;BME280;63802;53.232;6.570;2022-12-13T06:58:36;101273.00;;;-4.74;95.42
75221;BME280;63802;53.232;6.570;2022-12-13T07:01:04;101275.72;;;-4.69;95.56
75221;BME280;63802;53.232;6.570;2022-12-13T07:03:30;101271.38;;;-4.75;95.69
75221;BME280;63802;53.232;6.570;2022-12-13T07:05:59;101262.28;;;-4.79;95.29
75221;BME280;63802;53.232;6.570;2022-12-13T07:08:27;101263.66;;;-4.77;95.45
75221;BME280;63802;53.232;6.570;2022-12-13T07:10:53;101266.56;;;-4.78;95.46
75221;BME280;63802;53.232;6.570;2022-12-13T07:13:20;101263.66;;;-4.77;95.58
75221;BME280;63802;53.232;6.570;2022-12-13T07:15:46;101274.84;;;-4.75;95.72
75221;BME280;63802;53.232;6.570;2022-12-13T07:18:12;101271.34;;;-4.80;95.29
75221;BME280;63802;53.232;6.570;2022-12-13T07:20:38;101265.91;;;-4.90;94.79
75221;BME280;63802;53.232;6.570;2022-12-13T07:23:04;101258.22;;;-4.87;95.36
75221;BME280;63802;53.232;6.570;2022-12-13T07:25:30;101251.78;;;-4.91;95.29
75221;BME280;63802;53.232;6.570;2022-12-13T07:28:00;101259.69;;;-4.74;95.58
75221;BME280;63802;53.232;6.570;2022-12-13T07:30:27;101264.13;;;-4.80;95.29
75221;BME280;63802;53.232;6.570;2022-12-13T07:32:53;101263.84;;;-4.83;95.20
75221;BME280;63802;53.232;6.570;2022-12-13T07:35:18;101267.66;;;-4.74;94.79
75221;BME280;63802;53.232;6.570;2022-12-13T07:37:43;101260.72;;;-4.75;95.05
75221;BME280;63802;53.232;6.570;2022-12-13T07:40:09;101272.50;;;-4.71;95.12
75221;BME280;63802;53.232;6.570;2022-12-13T07:42:35;101273.59;;;-4.67;95.41
75221;BME280;63802;53.232;6.570;2022-12-13T07:45:00;101274.41;;;-4.66;95.45
75221;BME280;63802;53.232;6.570;2022-12-13T07:47:30;101282.34;;;-4.71;95.12
75221;BME280;63802;53.232;6.570;2022-12-13T07:49:56;101272.56;;;-4.66;95.43
75221;BME280;63802;53.232;6.570;2022-12-13T07:52:22;101283.97;;;-4.70;95.03
75221;BME280;63802;53.232;6.570;2022-12-13T07:54:47;101284.69;;;-4.75;95.13
75221;BME280;63802;53.232;6.570;2022-12-13T07:57:12;101281.41;;;-4.82;94.77
75221;BME280;63802;53.232;6.570;2022-12-13T07:59:38;101283.50;;;-4.84;95.27
75221;BME280;63802;53.232;6.570;2022-12-13T08:02:05;101281.94;;;-4.85;95.18
75221;BME280;63802;53.232;6.570;2022-12-13T08:04:31;101288.34;;;-4.81;94.91
75221;BME280;63802;53.232;6.570;2022-12-13T08:06:56;101289.97;;;-4.80;95.26
75221;BME280;63802;53.232;6.570;2022-12-13T08:09:22;101292.81;;;-4.87;94.84
75221;BME280;63802;53.232;6.570;2022-12-13T08:11:47;101294.34;;;-4.91;94.92
75221;BME280;63802;53.232;6.570;2022-12-13T08:14:13;101287.19;;;-4.90;95.17
75221;BME280;63802;53.232;6.570;2022-12-13T08:16:38;101296.34;;;-4.81;94.94
75221;BME280;63802;53.232;6.570;2022-12-13T08:19:04;101288.34;;;-4.81;94.86
75221;BME280;63802;53.232;6.570;2022-12-13T08:21:40;101297.97;;;-4.75;95.25
75221;BME280;63802;53.232;6.570;2022-12-13T08:24:05;101289.97;;;-4.80;95.16
75221;BME280;63802;53.232;6.570;2022-12-13T08:26:32;101288.53;;;-4.66;95.44
75221;BME280;63802;53.232;6.570;2022-12-13T08:28:57;101284.84;;;-4.60;95.11
75221;BME280;63802;53.232;6.570;2022-12-13T08:31:22;101292.59;;;-4.58;94.95
75221;BME280;63802;53.232;6.570;2022-12-13T08:33:48;101286.97;;;-4.62;94.93
75221;BME280;63802;53.232;6.570;2022-12-13T08:36:15;101301.97;;;-4.51;95.37
75221;BME280;63802;53.232;6.570;2022-12-13T08:38:42;101305.72;;;-4.52;95.02
75221;BME280;63802;53.232;6.570;2022-12-13T08:41:07;101310.06;;;-4.41;95.16
75221;BME280;63802;53.232;6.570;2022-12-13T08:43:35;101311.75;;;-4.35;95.45
75221;BME280;63802;53.232;6.570;2022-12-13T08:46:01;101319.25;;;-4.27;95.02
75221;BME280;63802;53.232;6.570;2022-12-13T08:48:27;101315.13;;;-4.13;94.78
75221;BME280;63802;53.232;6.570;2022-12-13T08:50:53;101326.94;;;-4.03;95.11
75221;BME280;63802;53.232;6.570;2022-12-13T08:53:18;101317.59;;;-4.06;95.04
75221;BME280;63802;53.232;6.570;2022-12-13T08:55:44;101318.41;;;-4.05;95.12
75221;BME280;63802;53.232;6.570;2022-12-13T08:58:09;101309.94;;;-3.97;94.93
75221;BME280;63802;53.232;6.570;2022-12-13T09:00:35;101315.13;;;-3.81;94.96
75221;BME280;63802;53.232;6.570;2022-12-13T09:03:03;101311.41;;;-3.80;95.09
75221;BME280;63802;53.232;6.570;2022-12-13T09:05:29;101325.34;;;-3.73;94.79
75221;BME280;63802;53.232;6.570;2022-12-13T09:07:55;101321.84;;;-3.73;94.67
75221;BME280;63802;53.232;6.570;2022-12-13T09:10:21;101317.06;;;-3.71;94.89
75221;BME280;63802;53.232;6.570;2022-12-13T09:12:47;101324.06;;;-3.65;94.49
75221;BME280;63802;53.232;6.570;2022-12-13T09:15:12;101329.41;;;-3.65;94.58
75221;BME280;63802;53.232;6.570;2022-12-13T09:17:38;101329.41;;;-3.65;94.73
75221;BME280;63802;53.232;6.570;2022-12-13T09:20:06;101335.00;;;-3.62;94.71
75221;BME280;63802;53.232;6.570;2022-12-13T09:22:31;101329.41;;;-3.65;94.43
75221;BME280;63802;53.232;6.570;2022-12-13T09:24:57;101331.28;;;-3.61;94.31
75221;BME280;63802;53.232;6.570;2022-12-13T09:27:22;101340.16;;;-3.50;94.42
75221;BME280;63802;53.232;6.570;2022-12-13T09:29:48;101339.09;;;-3.49;94.68
75221;BME280;63802;53.232;6.570;2022-12-13T09:32:14;101341.81;;;-3.44;94.18
75221;BME280;63802;53.232;6.570;2022-12-13T09:34:39;101332.72;;;-3.43;94.42
75221;BME280;63802;53.232;6.570;2022-12-13T09:37:04;101329.56;;;-3.40;94.85
75221;BME280;63802;53.232;6.570;2022-12-13T09:39:30;101335.16;;;-3.42;94.25
75221;BME280;63802;53.232;6.570;2022-12-13T09:41:57;101330.09;;;-3.38;94.24
75221;BME280;63802;53.232;6.570;2022-12-13T09:44:32;101327.47;;;-3.33;94.13
75221;BME280;63802;53.232;6.570;2022-12-13T09:47:00;101331.78;;;-3.27;94.30
75221;BME280;63802;53.232;6.570;2022-12-13T09:49:37;101329.41;;;-3.18;94.50
75221;BME280;63802;53.232;6.570;2022-12-13T09:52:05;101325.44;;;-3.11;94.15
75221;BME280;63802;53.232;6.570;2022-12-13T09:54:32;101318.56;;;-3.02;93.90
75221;BME280;63802;53.232;6.570;2022-12-13T09:56:58;101318.06;;;-2.94;94.04
75221;BME280;63802;53.232;6.570;2022-12-13T09:59:32;101316.47;;;-2.90;93.37
75221;BME280;63802;53.232;6.570;2022-12-13T10:02:14;101321.31;;;-2.82;93.48
75221;BME280;63802;53.232;6.570;2022-12-13T10:04:40;101310.66;;;-2.77;93.60
75221;BME280;63802;53.232;6.570;2022-12-13T10:07:17;101299.44;;;-2.68;93.46
75221;BME280;63802;53.232;6.570;2022-12-13T10:09:43;101302.66;;;-2.61;93.08
75221;BME280;63802;53.232;6.570;2022-12-13T10:12:12;101293.09;;;-2.57;93.22
75221;BME280;63802;53.232;6.570;2022-12-13T10:14:42;101293.13;;;-2.47;93.09
75221;BME280;63802;53.232;6.570;2022-12-13T10:17:13;101292.31;;;-2.48;92.45
75221;BME280;63802;53.232;6.570;2022-12-13T10:19:42;101288.03;;;-2.44;92.00
75221;BME280;63802;53.232;6.570;2022-12-13T10:22:16;101284.56;;;-2.39;92.39
75221;BME280;63802;53.232;6.570;2022-12-13T10:25:01;101277.38;;;-2.24;92.13
75221;BME280;63802;53.232;6.570;2022-12-13T10:27:37;101273.91;;;-2.14;91.75
75221;BME280;63802;53.232;6.570;2022-12-13T10:30:12;101271.50;;;-1.90;92.22
75221;BME280;63802;53.232;6.570;2022-12-13T10:32:59;101269.06;;;-1.72;91.79
75221;BME280;63802;53.232;6.570;2022-12-13T10:35:26;101270.13;;;-1.68;91.42
75221;BME280;63802;53.232;6.570;2022-12-13T10:37:52;101265.84;;;-1.64;91.16
75221;BME280;63802;53.232;6.570;2022-12-13T10:40:23;101257.84;;;-1.64;90.63
75221;BME280;63802;53.232;6.570;2022-12-13T10:45:31;101260.00;;;-1.81;90.33
75221;BME280;63802;53.232;6.570;2022-12-13T10:47:57;101250.91;;;-1.85;90.15
75221;BME280;63802;53.232;6.570;2022-12-13T10:50:25;101246.34;;;-1.89;89.65
75221;BME280;63802;53.232;6.570;2022-12-13T10:52:51;101258.38;;;-1.92;89.47
75221;BME280;63802;53.232;6.570;2022-12-13T10:55:25;101269.06;;;-1.92;89.24
75221;BME280;63802;53.232;6.570;2022-12-13T10:58:17;101259.47;;;-1.83;89.10
75221;BME280;63802;53.232;6.570;2022-12-13T11:00:44;101249.25;;;-1.61;88.54
75221;BME280;63802;53.232;6.570;2022-12-13T11:03:31;101249.72;;;-1.33;88.29
75221;BME280;63802;53.232;6.570;2022-12-13T11:06:26;101253.09;;;-1.08;88.02
75221;BME280;63802;53.232;6.570;2022-12-13T11:08:52;101247.97;;;-0.94;87.39
75221;BME280;63802;53.232;6.570;2022-12-13T11:11:27;101245.16;;;-0.74;87.06
75221;BME280;63802;53.232;6.570;2022-12-13T11:13:55;101238.69;;;-0.63;86.41
75221;BME280;63802;53.232;6.570;2022-12-13T11:16:33;101244.47;;;-0.46;86.07
75221;BME280;63802;53.232;6.570;2022-12-13T11:19:02;101229.94;;;-0.40;85.42
75221;BME280;63802;53.232;6.570;2022-12-13T11:21:31;101235.19;;;-0.25;85.29
75221;BME280;63802;53.232;6.570;2022-12-13T11:24:01;101236.19;;;-0.16;84.62
75221;BME280;63802;53.232;6.570;2022-12-13T11:26:28;101222.72;;;-0.11;84.36
75221;BME280;63802;53.232;6.570;2022-12-13T11:29:14;101219.63;;;0.06;84.50
75221;BME280;63802;53.232;6.570;2022-12-13T11:31:53;101224.38;;;0.43;84.71
75221;BME280;63802;53.232;6.570;2022-12-13T11:37:23;101217.34;;;0.47;83.26
75221;BME280;63802;53.232;6.570;2022-12-13T11:39:59;101213.97;;;0.60;83.63
75221;BME280;63802;53.232;6.570;2022-12-13T11:42:43;101208.47;;;0.70;83.63
75221;BME280;63802;53.232;6.570;2022-12-13T11:47:45;101202.97;;;0.80;83.59
75221;BME280;63802;53.232;6.570;2022-12-13T11:50:18;101198.09;;;0.82;82.92
75221;BME280;63802;53.232;6.570;2022-12-13T11:52:52;101198.50;;;0.94;82.98
75221;BME280;63802;53.232;6.570;2022-12-13T11:55:38;101196.97;;;0.88;81.81
75221;BME280;63802;53.232;6.570;2022-12-13T12:00:53;101192.47;;;1.02;82.23
75221;BME280;63802;53.232;6.570;2022-12-13T12:03:36;101174.38;;;0.89;81.39
75221;BME280;63802;53.232;6.570;2022-12-13T12:06:17;101191.25;;;1.13;81.79
75221;BME280;63802;53.232;6.570;2022-12-13T12:09:06;101191.38;;;1.41;82.34
75221;BME280;63802;53.232;6.570;2022-12-13T12:11:59;101192.91;;;1.28;81.27
75221;BME280;63802;53.232;6.570;2022-12-13T12:14:45;101187.91;;;1.21;80.56
75221;BME280;63802;53.232;6.570;2022-12-13T12:17:14;101184.72;;;1.19;80.65
75221;BME280;63802;53.232;6.570;2022-12-13T12:19:44;101191.47;;;1.35;81.26
75221;BME280;63802;53.232;6.570;2022-12-13T12:22:38;101179.41;;;1.33;81.15
75221;BME280;63802;53.232;6.570;2022-12-13T12:25:27;101170.94;;;1.58;81.09
75221;BME280;63802;53.232;6.570;2022-12-13T12:28:19;101176.69;;;1.52;81.01
75221;BME280;63802;53.232;6.570;2022-12-13T12:47:04;101161.34;;;1.20;78.47
75221;BME280;63802;53.232;6.570;2022-12-13T12:52:41;101161.97;;;1.30;78.23
75221;BME280;63802;53.232;6.570;2022-12-13T13:03:27;101155.72;;;1.16;77.93
75221;BME280;63802;53.232;6.570;2022-12-13T13:06:00;101154.72;;;1.31;77.96
75221;BME280;63802;53.232;6.570;2022-12-13T13:08:55;101161.34;;;1.20;77.10
75221;BME280;63802;53.232;6.570;2022-12-13T13:11:26;101160.09;;;1.12;77.67
75221;BME280;63802;53.232;6.570;2022-12-13T13:14:07;101163.78;;;1.16;77.70
75221;BME280;63802;53.232;6.570;2022-12-13T13:16:51;101156.66;;;1.25;76.25
75221;BME280;63802;53.232;6.570;2022-12-13T13:19:38;101160.53;;;1.01;76.01
75221;BME280;63802;53.232;6.570;2022-12-13T13:22:28;101159.75;;;1.00;76.31
75221;BME280;63802;53.232;6.570;2022-12-13T13:27:43;101161.47;;;1.10;76.00
75221;BME280;63802;53.232;6.570;2022-12-13T13:30:23;101160.53;;;1.01;76.00
75221;BME280;63802;53.232;6.570;2022-12-13T13:32:55;101163.31;;;0.72;76.26
75221;BME280;63802;53.232;6.570;2022-12-13T13:37:52;101161.44;;;0.30;77.94
75221;BME280;63802;53.232;6.570;2022-12-13T13:56:33;101153.81;;;-0.39;79.83
75221;BME280;63802;53.232;6.570;2022-12-13T14:02:03;101153.56;;;-0.42;80.02
75221;BME280;63802;53.232;6.570;2022-12-13T14:27:16;101150.63;;;-0.75;81.05
75221;BME280;63802;53.232;6.570;2022-12-13T14:29:45;101155.75;;;-0.83;80.86
75221;BME280;63802;53.232;6.570;2022-12-13T14:32:23;101153.13;;;-0.93;81.29
75221;BME280;63802;53.232;6.570;2022-12-13T14:34:49;101147.28;;;-1.00;81.46
75221;BME280;63802;53.232;6.570;2022-12-13T14:37:29;101150.00;;;-1.10;82.03
75221;BME280;63802;53.232;6.570;2022-12-13T14:39:56;101158.91;;;-1.20;82.21
75221;BME280;63802;53.232;6.570;2022-12-13T14:42:31;101151.16;;;-1.21;82.54
75221;BME280;63802;53.232;6.570;2022-12-13T14:45:26;101157.63;;;-1.27;82.85